Jacksonville, FL (32216)

12:15 AM EDT on September 18, 2014 (GMT -0400)
Jacksonville Corporate Center | Change Station
CLOSE
Current Station
Personal Weather Station
Location: Jacksonville, FL
Elevation: 45 ft
Nearby Weather Stations

Elev 45 ft 30.26 °N, 81.60 °W | Updated 2 minutes ago

Clear
Clear
77.5 °F
Feels Like 79 °F
N
0.0
Wind Variable Wind from North
Gusts 0.0 mph

Today
High -- | Low -- °F
--% Chance of Precip.
Yesterday
High -- | Low -- °F
Precip. -- in
7:12 AM 7:27 PM
Waning Crescent, 30% visible
Pressure 29.92 in
Visibility 10.0 miles
Clouds Few 4900 ft
Heat Index 79 °F
Dew Point 74 °F
Humidity 89%
Rainfall 0.00 in
Snow Depth Not available.
UV 0 out of 12
Pollen 6.40 out of 12
Ozone Good
PM2.5 Good
Flu Activity Not available.
METAR KCRG 180353Z AUTO 00000KT 10SM FEW049 24/22 A2992 RMK AO2 SLP130 T02440222

More Conditions Fewer Conditions

Pressure 29.92 in
Visibility 10.0 miles
Clouds Few 4900 ft
Heat Index 79 °F
Dew Point 74 °F
Humidity 89%
Rainfall 0.00 in
Snow Depth Not available.
UV 0 out of 12
Pollen 6.40 out of 12
Ozone Good
PM2.5 Good
Flu Activity Not available.
METAR KCRG 180353Z AUTO 00000KT 10SM FEW049 24/22 A2992 RMK AO2 SLP130 T02440222

More Conditions Fewer Conditions

10-Day Weather Forecast

Almanac

Astronomy

Sep. 18, 2014 Rise Set
Actual Time 7:12 AM EDT 7:27 PM EDT
Civil Twilight 6:48 AM EDT 7:51 PM EDT
Nautical Twilight 6:20 AM EDT 8:19 PM EDT
Astronomical Twilight 5:52 AM EDT 8:48 PM EDT
Moon 2:19 AM EDT 4:03 PM EDT
Length of Visible Light 13h 03m
Length of Day
12h 15m
Tomorrow will be 1m 48s shorter.
Waning Crescent, 30% of the Moon is Illuminated
Today
Waning Crescent
Sep 24
New
Oct 1
First Quarter
Oct 8
Full
Oct 15
Last Quarter

Yesterday's Extremes

State Highs State Lows

Community

WunderPhotos

Upload Photos

1,754,290 photos uploaded!

Nearby

Air Quality

  Air Quality AQ Index Pollutant
Yesterday Good
PM2.5
Yesterday Good
OZONE
Current Good
PM2.5
Current Good
OZONE
Wednesday Good
OZONE
Wednesday Good
PM2.5
Thursday Good
OZONE
Thursday Good
PM2.5

Snow Depth

Station Depth Elevation
No new snow has been reported.

Earthquake Activity

City Distance Mag. Time & Date
No recent earthquake activity has been reported nearby.
Minimum magnitude displayed is 2.5.

Coastal Water Temperatures

Place Temperature
Mayport (Bar Pilots Dock), FL 84.0 °F
Fernandina Beach, FL 84.9 °F

Nearby Weather Stations